sensor_id;sensor_type;location;lat;lon;timestamp;P1;durP1;ratioP1;P2;durP2;ratioP2
9892;SDS011;4985;49.092;8.542;2022-11-11T00:01:38;3.97;;;2.43;;
9892;SDS011;4985;49.092;8.542;2022-11-11T00:04:06;5.13;;;2.23;;
9892;SDS011;4985;49.092;8.542;2022-11-11T00:06:32;4.07;;;2.73;;
9892;SDS011;4985;49.092;8.542;2022-11-11T00:08:59;5.10;;;3.00;;
9892;SDS011;4985;49.092;8.542;2022-11-11T00:11:25;7.33;;;3.17;;
9892;SDS011;4985;49.092;8.542;2022-11-11T00:13:52;7.00;;;3.27;;
9892;SDS011;4985;49.092;8.542;2022-11-11T00:16:19;4.80;;;2.33;;
9892;SDS011;4985;49.092;8.542;2022-11-11T00:18:46;3.80;;;2.50;;
9892;SDS011;4985;49.092;8.542;2022-11-11T00:21:31;8.93;;;2.87;;
9892;SDS011;4985;49.092;8.542;2022-11-11T00:24:20;5.13;;;3.00;;
9892;SDS011;4985;49.092;8.542;2022-11-11T00:27:07;6.67;;;3.10;;
9892;SDS011;4985;49.092;8.542;2022-11-11T00:29:35;3.87;;;2.60;;
9892;SDS011;4985;49.092;8.542;2022-11-11T00:32:02;4.37;;;2.73;;
9892;SDS011;4985;49.092;8.542;2022-11-11T00:34:47;3.97;;;2.57;;
9892;SDS011;4985;49.092;8.542;2022-11-11T00:37:28;6.80;;;3.00;;
9892;SDS011;4985;49.092;8.542;2022-11-11T00:39:55;4.67;;;2.57;;
9892;SDS011;4985;49.092;8.542;2022-11-11T00:42:22;5.13;;;3.20;;
9892;SDS011;4985;49.092;8.542;2022-11-11T00:44:48;4.07;;;2.77;;
9892;SDS011;4985;49.092;8.542;2022-11-11T00:47:15;3.87;;;2.80;;
9892;SDS011;4985;49.092;8.542;2022-11-11T00:49:59;5.87;;;3.23;;
9892;SDS011;4985;49.092;8.542;2022-11-11T00:52:45;4.90;;;2.67;;
9892;SDS011;4985;49.092;8.542;2022-11-11T00:55:12;5.10;;;3.10;;
9892;SDS011;4985;49.092;8.542;2022-11-11T00:57:39;3.00;;;2.10;;
9892;SDS011;4985;49.092;8.542;2022-11-11T01:00:06;4.67;;;2.63;;
9892;SDS011;4985;49.092;8.542;2022-11-11T01:02:33;2.30;;;2.03;;
9892;SDS011;4985;49.092;8.542;2022-11-11T01:05:00;4.97;;;2.27;;
9892;SDS011;4985;49.092;8.542;2022-11-11T01:07:26;3.90;;;2.30;;
9892;SDS011;4985;49.092;8.542;2022-11-11T01:09:54;4.97;;;2.57;;
9892;SDS011;4985;49.092;8.542;2022-11-11T01:12:21;4.07;;;2.50;;
9892;SDS011;4985;49.092;8.542;2022-11-11T01:14:48;5.10;;;2.67;;
9892;SDS011;4985;49.092;8.542;2022-11-11T01:17:15;5.27;;;3.10;;
9892;SDS011;4985;49.092;8.542;2022-11-11T01:19:41;6.00;;;3.27;;
9892;SDS011;4985;49.092;8.542;2022-11-11T01:22:08;4.80;;;3.20;;
9892;SDS011;4985;49.092;8.542;2022-11-11T01:24:35;6.40;;;3.13;;
9892;SDS011;4985;49.092;8.542;2022-11-11T01:27:03;3.53;;;2.87;;
9892;SDS011;4985;49.092;8.542;2022-11-11T01:29:30;3.80;;;2.93;;
9892;SDS011;4985;49.092;8.542;2022-11-11T01:31:56;3.90;;;2.33;;
9892;SDS011;4985;49.092;8.542;2022-11-11T01:34:23;5.20;;;2.60;;
9892;SDS011;4985;49.092;8.542;2022-11-11T01:36:51;4.53;;;2.60;;
9892;SDS011;4985;49.092;8.542;2022-11-11T01:39:18;3.60;;;2.50;;
9892;SDS011;4985;49.092;8.542;2022-11-11T01:41:45;4.47;;;2.73;;
9892;SDS011;4985;49.092;8.542;2022-11-11T01:44:17;3.20;;;2.50;;
9892;SDS011;4985;49.092;8.542;2022-11-11T01:46:46;4.53;;;2.60;;
9892;SDS011;4985;49.092;8.542;2022-11-11T01:49:24;5.47;;;2.73;;
9892;SDS011;4985;49.092;8.542;2022-11-11T01:51:56;5.17;;;2.87;;
9892;SDS011;4985;49.092;8.542;2022-11-11T01:54:30;4.87;;;3.27;;
9892;SDS011;4985;49.092;8.542;2022-11-11T01:57:01;2.77;;;2.40;;
9892;SDS011;4985;49.092;8.542;2022-11-11T01:59:35;4.20;;;2.00;;
9892;SDS011;4985;49.092;8.542;2022-11-11T02:02:06;3.40;;;2.63;;
9892;SDS011;4985;49.092;8.542;2022-11-11T02:04:38;3.40;;;2.53;;
9892;SDS011;4985;49.092;8.542;2022-11-11T02:07:23;2.37;;;2.03;;
9892;SDS011;4985;49.092;8.542;2022-11-11T02:09:51;5.07;;;2.57;;
9892;SDS011;4985;49.092;8.542;2022-11-11T02:12:19;4.60;;;2.40;;
9892;SDS011;4985;49.092;8.542;2022-11-11T02:15:04;3.90;;;2.97;;
9892;SDS011;4985;49.092;8.542;2022-11-11T02:17:32;4.10;;;2.60;;
9892;SDS011;4985;49.092;8.542;2022-11-11T02:19:59;4.73;;;2.90;;
9892;SDS011;4985;49.092;8.542;2022-11-11T02:22:29;3.73;;;2.80;;
9892;SDS011;4985;49.092;8.542;2022-11-11T02:25:02;5.17;;;2.80;;
9892;SDS011;4985;49.092;8.542;2022-11-11T02:27:33;4.73;;;2.63;;
9892;SDS011;4985;49.092;8.542;2022-11-11T02:30:03;5.13;;;2.97;;
9892;SDS011;4985;49.092;8.542;2022-11-11T02:32:39;6.13;;;3.13;;
9892;SDS011;4985;49.092;8.542;2022-11-11T02:35:10;4.40;;;2.37;;
9892;SDS011;4985;49.092;8.542;2022-11-11T02:37:39;6.23;;;2.40;;
9892;SDS011;4985;49.092;8.542;2022-11-11T02:40:10;4.33;;;2.30;;
9892;SDS011;4985;49.092;8.542;2022-11-11T02:42:39;3.30;;;2.53;;
9892;SDS011;4985;49.092;8.542;2022-11-11T02:45:06;4.40;;;2.20;;
9892;SDS011;4985;49.092;8.542;2022-11-11T02:47:33;3.20;;;2.37;;
9892;SDS011;4985;49.092;8.542;2022-11-11T02:50:00;2.97;;;2.10;;
9892;SDS011;4985;49.092;8.542;2022-11-11T02:52:26;3.93;;;2.10;;
9892;SDS011;4985;49.092;8.542;2022-11-11T02:54:53;3.97;;;1.93;;
9892;SDS011;4985;49.092;8.542;2022-11-11T02:57:21;3.50;;;2.20;;
9892;SDS011;4985;49.092;8.542;2022-11-11T02:59:48;2.60;;;2.13;;
9892;SDS011;4985;49.092;8.542;2022-11-11T03:02:15;3.80;;;2.10;;
9892;SDS011;4985;49.092;8.542;2022-11-11T03:04:42;2.53;;;2.03;;
9892;SDS011;4985;49.092;8.542;2022-11-11T03:07:09;3.43;;;2.43;;
9892;SDS011;4985;49.092;8.542;2022-11-11T03:09:35;2.10;;;1.90;;
9892;SDS011;4985;49.092;8.542;2022-11-11T03:12:02;2.20;;;1.90;;
9892;SDS011;4985;49.092;8.542;2022-11-11T03:14:30;3.83;;;1.80;;
9892;SDS011;4985;49.092;8.542;2022-11-11T03:16:57;3.17;;;1.97;;
9892;SDS011;4985;49.092;8.542;2022-11-11T03:19:41;4.13;;;1.90;;
9892;SDS011;4985;49.092;8.542;2022-11-11T03:22:08;5.17;;;2.10;;
9892;SDS011;4985;49.092;8.542;2022-11-11T03:24:33;5.23;;;2.50;;
9892;SDS011;4985;49.092;8.542;2022-11-11T03:27:17;3.60;;;2.40;;
9892;SDS011;4985;49.092;8.542;2022-11-11T03:29:45;5.33;;;2.90;;
9892;SDS011;4985;49.092;8.542;2022-11-11T03:32:12;3.77;;;2.70;;
9892;SDS011;4985;49.092;8.542;2022-11-11T03:34:38;3.97;;;2.97;;
9892;SDS011;4985;49.092;8.542;2022-11-11T03:37:05;4.13;;;2.57;;
9892;SDS011;4985;49.092;8.542;2022-11-11T03:39:51;3.63;;;2.57;;
9892;SDS011;4985;49.092;8.542;2022-11-11T03:42:18;4.30;;;2.83;;
9892;SDS011;4985;49.092;8.542;2022-11-11T03:44:46;4.60;;;3.33;;
9892;SDS011;4985;49.092;8.542;2022-11-11T03:47:12;4.97;;;2.93;;
9892;SDS011;4985;49.092;8.542;2022-11-11T03:49:40;3.73;;;3.10;;
9892;SDS011;4985;49.092;8.542;2022-11-11T03:52:07;3.10;;;2.57;;
9892;SDS011;4985;49.092;8.542;2022-11-11T03:54:34;3.50;;;2.60;;
9892;SDS011;4985;49.092;8.542;2022-11-11T03:57:00;4.70;;;2.43;;
9892;SDS011;4985;49.092;8.542;2022-11-11T03:59:46;3.50;;;2.60;;
9892;SDS011;4985;49.092;8.542;2022-11-11T04:02:13;3.67;;;2.40;;
9892;SDS011;4985;49.092;8.542;2022-11-11T04:04:57;3.40;;;2.40;;
9892;SDS011;4985;49.092;8.542;2022-11-11T04:07:41;4.23;;;2.60;;
9892;SDS011;4985;49.092;8.542;2022-11-11T04:10:26;3.90;;;2.57;;
9892;SDS011;4985;49.092;8.542;2022-11-11T04:12:54;4.53;;;2.37;;
9892;SDS011;4985;49.092;8.542;2022-11-11T04:15:40;3.83;;;2.37;;
9892;SDS011;4985;49.092;8.542;2022-11-11T04:18:24;4.60;;;2.57;;
9892;SDS011;4985;49.092;8.542;2022-11-11T04:21:05;3.73;;;2.60;;
9892;SDS011;4985;49.092;8.542;2022-11-11T04:23:50;3.07;;;2.63;;
9892;SDS011;4985;49.092;8.542;2022-11-11T04:26:17;4.57;;;2.80;;
9892;SDS011;4985;49.092;8.542;2022-11-11T04:28:43;2.80;;;2.53;;
9892;SDS011;4985;49.092;8.542;2022-11-11T04:31:28;3.63;;;2.43;;
9892;SDS011;4985;49.092;8.542;2022-11-11T04:33:55;2.57;;;2.27;;
9892;SDS011;4985;49.092;8.542;2022-11-11T04:36:21;3.63;;;2.50;;
9892;SDS011;4985;49.092;8.542;2022-11-11T04:38:47;2.63;;;2.20;;
9892;SDS011;4985;49.092;8.542;2022-11-11T04:41:32;2.73;;;2.03;;
9892;SDS011;4985;49.092;8.542;2022-11-11T04:43:58;3.23;;;2.10;;
9892;SDS011;4985;49.092;8.542;2022-11-11T04:46:44;3.87;;;2.60;;
9892;SDS011;4985;49.092;8.542;2022-11-11T04:49:11;3.83;;;2.57;;
9892;SDS011;4985;49.092;8.542;2022-11-11T04:51:37;2.90;;;2.40;;
9892;SDS011;4985;49.092;8.542;2022-11-11T04:54:21;2.83;;;2.50;;
9892;SDS011;4985;49.092;8.542;2022-11-11T04:56:48;4.37;;;2.63;;
9892;SDS011;4985;49.092;8.542;2022-11-11T04:59:14;3.73;;;2.37;;
9892;SDS011;4985;49.092;8.542;2022-11-11T05:01:41;2.83;;;2.40;;
9892;SDS011;4985;49.092;8.542;2022-11-11T05:04:23;4.23;;;2.77;;
9892;SDS011;4985;49.092;8.542;2022-11-11T05:06:50;4.73;;;2.23;;
9892;SDS011;4985;49.092;8.542;2022-11-11T05:09:34;4.20;;;2.30;;
9892;SDS011;4985;49.092;8.542;2022-11-11T05:12:01;4.77;;;2.17;;
9892;SDS011;4985;49.092;8.542;2022-11-11T05:14:28;4.20;;;2.27;;
9892;SDS011;4985;49.092;8.542;2022-11-11T05:17:12;2.20;;;1.97;;
9892;SDS011;4985;49.092;8.542;2022-11-11T05:19:57;2.90;;;2.20;;
9892;SDS011;4985;49.092;8.542;2022-11-11T05:22:42;3.10;;;2.30;;
9892;SDS011;4985;49.092;8.542;2022-11-11T05:25:09;3.37;;;2.30;;
9892;SDS011;4985;49.092;8.542;2022-11-11T05:27:53;2.90;;;2.60;;
9892;SDS011;4985;49.092;8.542;2022-11-11T05:30:21;2.77;;;2.33;;
9892;SDS011;4985;49.092;8.542;2022-11-11T05:32:49;3.73;;;2.60;;
9892;SDS011;4985;49.092;8.542;2022-11-11T05:35:17;2.87;;;2.53;;
9892;SDS011;4985;49.092;8.542;2022-11-11T05:37:44;2.53;;;2.30;;
9892;SDS011;4985;49.092;8.542;2022-11-11T05:40:32;4.27;;;2.63;;
9892;SDS011;4985;49.092;8.542;2022-11-11T05:42:59;5.10;;;3.03;;
9892;SDS011;4985;49.092;8.542;2022-11-11T05:45:26;3.80;;;3.13;;
9892;SDS011;4985;49.092;8.542;2022-11-11T05:47:52;4.93;;;3.20;;
9892;SDS011;4985;49.092;8.542;2022-11-11T05:50:20;4.87;;;3.37;;
9892;SDS011;4985;49.092;8.542;2022-11-11T05:52:47;4.00;;;3.03;;
9892;SDS011;4985;49.092;8.542;2022-11-11T05:55:14;3.37;;;2.47;;
9892;SDS011;4985;49.092;8.542;2022-11-11T05:57:41;5.30;;;3.43;;
9892;SDS011;4985;49.092;8.542;2022-11-11T06:00:08;8.27;;;4.43;;
9892;SDS011;4985;49.092;8.542;2022-11-11T06:02:35;12.23;;;5.17;;
9892;SDS011;4985;49.092;8.542;2022-11-11T06:05:03;14.10;;;6.37;;
9892;SDS011;4985;49.092;8.542;2022-11-11T06:07:33;11.80;;;5.43;;
9892;SDS011;4985;49.092;8.542;2022-11-11T06:10:03;9.60;;;5.10;;
9892;SDS011;4985;49.092;8.542;2022-11-11T06:12:48;9.17;;;4.07;;
9892;SDS011;4985;49.092;8.542;2022-11-11T06:15:31;9.57;;;5.23;;
9892;SDS011;4985;49.092;8.542;2022-11-11T06:17:58;9.23;;;5.20;;
9892;SDS011;4985;49.092;8.542;2022-11-11T06:20:25;11.87;;;5.73;;
9892;SDS011;4985;49.092;8.542;2022-11-11T06:22:54;8.87;;;4.63;;
9892;SDS011;4985;49.092;8.542;2022-11-11T06:25:24;8.77;;;4.70;;
9892;SDS011;4985;49.092;8.542;2022-11-11T06:28:09;11.67;;;7.40;;
9892;SDS011;4985;49.092;8.542;2022-11-11T06:30:38;13.30;;;7.33;;
9892;SDS011;4985;49.092;8.542;2022-11-11T06:33:05;12.73;;;8.43;;
9892;SDS011;4985;49.092;8.542;2022-11-11T06:35:33;12.40;;;7.17;;
9892;SDS011;4985;49.092;8.542;2022-11-11T06:38:02;11.77;;;7.77;;
9892;SDS011;4985;49.092;8.542;2022-11-11T06:40:30;12.10;;;7.00;;
9892;SDS011;4985;49.092;8.542;2022-11-11T06:42:57;10.20;;;6.20;;
9892;SDS011;4985;49.092;8.542;2022-11-11T06:45:24;9.03;;;5.77;;
9892;SDS011;4985;49.092;8.542;2022-11-11T06:47:52;7.93;;;5.20;;
9892;SDS011;4985;49.092;8.542;2022-11-11T06:50:19;8.23;;;4.37;;
9892;SDS011;4985;49.092;8.542;2022-11-11T06:52:46;6.20;;;3.07;;
9892;SDS011;4985;49.092;8.542;2022-11-11T06:55:14;3.00;;;2.60;;
9892;SDS011;4985;49.092;8.542;2022-11-11T06:57:41;6.10;;;3.37;;
9892;SDS011;4985;49.092;8.542;2022-11-11T07:00:08;7.37;;;3.30;;
9892;SDS011;4985;49.092;8.542;2022-11-11T07:02:36;3.67;;;3.20;;
9892;SDS011;4985;49.092;8.542;2022-11-11T07:05:03;4.73;;;3.33;;
9892;SDS011;4985;49.092;8.542;2022-11-11T07:07:30;3.37;;;2.47;;
9892;SDS011;4985;49.092;8.542;2022-11-11T07:09:57;3.23;;;2.63;;
9892;SDS011;4985;49.092;8.542;2022-11-11T07:12:25;2.73;;;2.30;;
9892;SDS011;4985;49.092;8.542;2022-11-11T07:14:51;2.83;;;2.27;;
9892;SDS011;4985;49.092;8.542;2022-11-11T07:17:18;5.00;;;2.60;;
9892;SDS011;4985;49.092;8.542;2022-11-11T07:19:44;2.57;;;2.20;;
9892;SDS011;4985;49.092;8.542;2022-11-11T07:22:11;4.37;;;2.43;;
9892;SDS011;4985;49.092;8.542;2022-11-11T07:24:38;5.93;;;2.33;;
9892;SDS011;4985;49.092;8.542;2022-11-11T07:27:04;3.87;;;2.57;;
9892;SDS011;4985;49.092;8.542;2022-11-11T07:29:32;6.00;;;3.10;;
9892;SDS011;4985;49.092;8.542;2022-11-11T07:31:59;4.43;;;2.63;;
9892;SDS011;4985;49.092;8.542;2022-11-11T07:34:26;3.30;;;2.20;;
9892;SDS011;4985;49.092;8.542;2022-11-11T07:36:53;3.47;;;2.50;;
9892;SDS011;4985;49.092;8.542;2022-11-11T07:39:21;4.70;;;2.47;;
9892;SDS011;4985;49.092;8.542;2022-11-11T07:41:47;4.27;;;2.40;;
9892;SDS011;4985;49.092;8.542;2022-11-11T07:44:14;2.90;;;2.60;;
9892;SDS011;4985;49.092;8.542;2022-11-11T07:46:42;3.17;;;2.57;;
9892;SDS011;4985;49.092;8.542;2022-11-11T07:49:08;2.77;;;2.30;;
9892;SDS011;4985;49.092;8.542;2022-11-11T07:51:35;3.50;;;2.70;;
9892;SDS011;4985;49.092;8.542;2022-11-11T07:54:02;4.37;;;2.63;;
9892;SDS011;4985;49.092;8.542;2022-11-11T07:56:29;3.00;;;2.63;;
9892;SDS011;4985;49.092;8.542;2022-11-11T07:58:55;4.57;;;2.70;;
9892;SDS011;4985;49.092;8.542;2022-11-11T08:01:22;3.10;;;2.40;;
9892;SDS011;4985;49.092;8.542;2022-11-11T08:03:50;3.43;;;2.47;;
9892;SDS011;4985;49.092;8.542;2022-11-11T08:06:17;2.50;;;2.07;;
9892;SDS011;4985;49.092;8.542;2022-11-11T08:08:44;1.97;;;1.80;;
9892;SDS011;4985;49.092;8.542;2022-11-11T08:11:11;2.90;;;1.90;;
9892;SDS011;4985;49.092;8.542;2022-11-11T08:13:38;3.43;;;2.40;;
9892;SDS011;4985;49.092;8.542;2022-11-11T08:16:04;2.33;;;2.00;;
9892;SDS011;4985;49.092;8.542;2022-11-11T08:18:31;2.47;;;1.97;;
9892;SDS011;4985;49.092;8.542;2022-11-11T08:20:59;2.83;;;1.93;;
9892;SDS011;4985;49.092;8.542;2022-11-11T08:23:28;4.20;;;2.50;;
9892;SDS011;4985;49.092;8.542;2022-11-11T08:25:58;3.70;;;2.27;;
9892;SDS011;4985;49.092;8.542;2022-11-11T08:28:25;3.50;;;2.37;;
9892;SDS011;4985;49.092;8.542;2022-11-11T08:30:52;3.50;;;2.77;;
9892;SDS011;4985;49.092;8.542;2022-11-11T08:33:19;2.40;;;2.17;;
9892;SDS011;4985;49.092;8.542;2022-11-11T08:35:46;3.17;;;2.50;;
9892;SDS011;4985;49.092;8.542;2022-11-11T08:38:15;3.47;;;2.70;;
9892;SDS011;4985;49.092;8.542;2022-11-11T08:40:41;5.30;;;2.90;;
9892;SDS011;4985;49.092;8.542;2022-11-11T08:43:08;3.70;;;2.90;;
9892;SDS011;4985;49.092;8.542;2022-11-11T08:45:35;4.33;;;2.90;;
9892;SDS011;4985;49.092;8.542;2022-11-11T08:48:02;2.67;;;2.20;;
9892;SDS011;4985;49.092;8.542;2022-11-11T08:50:29;3.10;;;2.13;;
9892;SDS011;4985;49.092;8.542;2022-11-11T08:52:56;3.37;;;2.30;;
9892;SDS011;4985;49.092;8.542;2022-11-11T08:55:24;2.53;;;2.30;;
9892;SDS011;4985;49.092;8.542;2022-11-11T08:57:56;3.63;;;2.30;;
9892;SDS011;4985;49.092;8.542;2022-11-11T09:00:23;2.70;;;2.00;;
9892;SDS011;4985;49.092;8.542;2022-11-11T09:02:50;3.30;;;2.50;;
9892;SDS011;4985;49.092;8.542;2022-11-11T09:05:17;5.70;;;2.50;;
9892;SDS011;4985;49.092;8.542;2022-11-11T09:07:44;3.93;;;2.40;;
9892;SDS011;4985;49.092;8.542;2022-11-11T09:10:11;4.63;;;2.90;;
9892;SDS011;4985;49.092;8.542;2022-11-11T09:12:39;2.47;;;2.20;;
9892;SDS011;4985;49.092;8.542;2022-11-11T09:15:05;3.40;;;2.47;;
9892;SDS011;4985;49.092;8.542;2022-11-11T09:17:32;4.43;;;2.57;;
9892;SDS011;4985;49.092;8.542;2022-11-11T09:19:59;3.10;;;2.70;;
9892;SDS011;4985;49.092;8.542;2022-11-11T09:22:25;5.43;;;3.23;;
9892;SDS011;4985;49.092;8.542;2022-11-11T09:24:52;4.93;;;2.80;;
9892;SDS011;4985;49.092;8.542;2022-11-11T09:27:19;4.70;;;2.37;;
9892;SDS011;4985;49.092;8.542;2022-11-11T09:29:47;2.87;;;2.57;;
9892;SDS011;4985;49.092;8.542;2022-11-11T09:32:13;3.63;;;2.73;;
9892;SDS011;4985;49.092;8.542;2022-11-11T09:34:40;4.00;;;2.53;;
9892;SDS011;4985;49.092;8.542;2022-11-11T09:37:06;4.10;;;2.73;;
9892;SDS011;4985;49.092;8.542;2022-11-11T09:39:33;3.93;;;2.57;;
9892;SDS011;4985;49.092;8.542;2022-11-11T09:42:02;3.97;;;2.90;;
9892;SDS011;4985;49.092;8.542;2022-11-11T09:44:41;3.90;;;3.00;;
9892;SDS011;4985;49.092;8.542;2022-11-11T09:47:26;3.50;;;2.73;;
9892;SDS011;4985;49.092;8.542;2022-11-11T09:49:58;4.17;;;2.97;;
9892;SDS011;4985;49.092;8.542;2022-11-11T09:52:28;3.37;;;2.80;;
9892;SDS011;4985;49.092;8.542;2022-11-11T09:55:02;4.70;;;2.90;;
9892;SDS011;4985;49.092;8.542;2022-11-11T09:57:33;4.17;;;3.10;;
9892;SDS011;4985;49.092;8.542;2022-11-11T10:00:06;4.63;;;2.80;;
9892;SDS011;4985;49.092;8.542;2022-11-11T10:02:42;4.30;;;2.53;;
9892;SDS011;4985;49.092;8.542;2022-11-11T10:05:14;2.60;;;2.37;;
9892;SDS011;4985;49.092;8.542;2022-11-11T10:07:45;4.00;;;2.67;;
9892;SDS011;4985;49.092;8.542;2022-11-11T10:10:19;4.43;;;2.80;;
9892;SDS011;4985;49.092;8.542;2022-11-11T10:12:49;4.30;;;2.67;;
9892;SDS011;4985;49.092;8.542;2022-11-11T10:15:21;4.13;;;2.90;;
9892;SDS011;4985;49.092;8.542;2022-11-11T10:17:54;5.33;;;2.90;;
9892;SDS011;4985;49.092;8.542;2022-11-11T10:20:34;3.90;;;2.83;;
9892;SDS011;4985;49.092;8.542;2022-11-11T10:23:12;4.30;;;3.33;;
9892;SDS011;4985;49.092;8.542;2022-11-11T10:25:41;4.93;;;2.80;;
9892;SDS011;4985;49.092;8.542;2022-11-11T10:28:16;5.03;;;3.67;;
9892;SDS011;4985;49.092;8.542;2022-11-11T10:30:45;3.63;;;3.07;;
9892;SDS011;4985;49.092;8.542;2022-11-11T10:33:15;5.03;;;3.07;;
9892;SDS011;4985;49.092;8.542;2022-11-11T10:35:44;5.43;;;2.67;;
9892;SDS011;4985;49.092;8.542;2022-11-11T10:38:19;3.97;;;2.63;;
9892;SDS011;4985;49.092;8.542;2022-11-11T10:40:58;6.17;;;2.67;;
9892;SDS011;4985;49.092;8.542;2022-11-11T10:43:30;3.40;;;2.87;;
9892;SDS011;4985;49.092;8.542;2022-11-11T10:45:59;4.23;;;3.13;;
9892;SDS011;4985;49.092;8.542;2022-11-11T10:48:33;4.17;;;3.07;;
9892;SDS011;4985;49.092;8.542;2022-11-11T10:51:08;4.70;;;3.20;;
9892;SDS011;4985;49.092;8.542;2022-11-11T10:53:37;7.30;;;3.37;;
9892;SDS011;4985;49.092;8.542;2022-11-11T10:56:14;4.43;;;2.97;;
9892;SDS011;4985;49.092;8.542;2022-11-11T10:58:47;4.90;;;3.50;;
9892;SDS011;4985;49.092;8.542;2022-11-11T11:01:21;7.23;;;3.70;;
9892;SDS011;4985;49.092;8.542;2022-11-11T11:03:56;3.97;;;2.77;;
9892;SDS011;4985;49.092;8.542;2022-11-11T11:06:27;4.40;;;3.20;;
9892;SDS011;4985;49.092;8.542;2022-11-11T11:08:56;4.60;;;2.63;;
9892;SDS011;4985;49.092;8.542;2022-11-11T11:11:32;6.70;;;2.90;;
9892;SDS011;4985;49.092;8.542;2022-11-11T11:14:05;3.27;;;2.47;;
9892;SDS011;4985;49.092;8.542;2022-11-11T11:16:41;3.87;;;2.37;;
9892;SDS011;4985;49.092;8.542;2022-11-11T11:19:19;4.73;;;2.67;;
9892;SDS011;4985;49.092;8.542;2022-11-11T11:21:47;4.10;;;2.63;;
9892;SDS011;4985;49.092;8.542;2022-11-11T11:24:18;5.17;;;2.53;;
9892;SDS011;4985;49.092;8.542;2022-11-11T11:26:48;3.43;;;2.47;;
9892;SDS011;4985;49.092;8.542;2022-11-11T11:29:23;4.40;;;2.57;;
9892;SDS011;4985;49.092;8.542;2022-11-11T11:31:53;3.97;;;2.67;;
9892;SDS011;4985;49.092;8.542;2022-11-11T11:34:19;3.80;;;2.67;;
9892;SDS011;4985;49.092;8.542;2022-11-11T11:36:57;3.80;;;2.77;;
9892;SDS011;4985;49.092;8.542;2022-11-11T11:39:31;3.97;;;2.50;;
9892;SDS011;4985;49.092;8.542;2022-11-11T11:42:00;4.37;;;2.50;;
9892;SDS011;4985;49.092;8.542;2022-11-11T11:44:26;5.20;;;2.70;;
9892;SDS011;4985;49.092;8.542;2022-11-11T11:46:56;3.40;;;2.60;;
9892;SDS011;4985;49.092;8.542;2022-11-11T11:49:36;3.37;;;2.43;;
9892;SDS011;4985;49.092;8.542;2022-11-11T11:52:19;6.87;;;3.30;;
9892;SDS011;4985;49.092;8.542;2022-11-11T11:54:54;5.60;;;2.77;;
9892;SDS011;4985;49.092;8.542;2022-11-11T11:57:34;6.83;;;2.77;;
9892;SDS011;4985;49.092;8.542;2022-11-11T12:00:15;3.00;;;2.57;;
9892;SDS011;4985;49.092;8.542;2022-11-11T12:02:52;4.23;;;2.80;;
9892;SDS011;4985;49.092;8.542;2022-11-11T12:05:38;5.23;;;2.53;;
9892;SDS011;4985;49.092;8.542;2022-11-11T12:08:18;2.63;;;2.43;;
9892;SDS011;4985;49.092;8.542;2022-11-11T12:10:58;4.67;;;2.63;;
9892;SDS011;4985;49.092;8.542;2022-11-11T12:13:33;4.80;;;2.33;;
9892;SDS011;4985;49.092;8.542;2022-11-11T12:16:12;5.67;;;2.70;;
9892;SDS011;4985;49.092;8.542;2022-11-11T12:19:00;3.20;;;2.40;;
9892;SDS011;4985;49.092;8.542;2022-11-11T12:21:40;3.70;;;2.13;;
9892;SDS011;4985;49.092;8.542;2022-11-11T12:24:21;4.57;;;2.50;;
9892;SDS011;4985;49.092;8.542;2022-11-11T12:27:04;4.90;;;2.57;;
9892;SDS011;4985;49.092;8.542;2022-11-11T12:29:43;6.67;;;2.43;;
9892;SDS011;4985;49.092;8.542;2022-11-11T12:32:25;4.07;;;2.50;;
9892;SDS011;4985;49.092;8.542;2022-11-11T12:38:01;6.27;;;3.03;;
9892;SDS011;4985;49.092;8.542;2022-11-11T12:40:44;3.70;;;3.07;;
9892;SDS011;4985;49.092;8.542;2022-11-11T12:43:21;4.03;;;2.37;;
9892;SDS011;4985;49.092;8.542;2022-11-11T12:45:55;5.03;;;2.97;;
9892;SDS011;4985;49.092;8.542;2022-11-11T12:48:37;6.07;;;3.10;;
9892;SDS011;4985;49.092;8.542;2022-11-11T12:51:17;3.47;;;2.57;;
9892;SDS011;4985;49.092;8.542;2022-11-11T12:53:56;4.13;;;2.63;;
9892;SDS011;4985;49.092;8.542;2022-11-11T12:56:31;3.83;;;2.73;;
9892;SDS011;4985;49.092;8.542;2022-11-11T12:59:09;3.67;;;2.47;;
9892;SDS011;4985;49.092;8.542;2022-11-11T13:01:48;4.53;;;2.70;;
9892;SDS011;4985;49.092;8.542;2022-11-11T13:04:29;7.07;;;2.50;;
9892;SDS011;4985;49.092;8.542;2022-11-11T13:07:16;5.57;;;2.57;;
9892;SDS011;4985;49.092;8.542;2022-11-11T13:10:05;3.60;;;2.37;;
9892;SDS011;4985;49.092;8.542;2022-11-11T13:12:42;6.40;;;2.40;;
9892;SDS011;4985;49.092;8.542;2022-11-11T13:15:19;4.50;;;2.77;;
9892;SDS011;4985;49.092;8.542;2022-11-11T13:17:48;3.80;;;2.50;;
9892;SDS011;4985;49.092;8.542;2022-11-11T13:20:17;5.50;;;2.63;;
9892;SDS011;4985;49.092;8.542;2022-11-11T13:22:51;3.07;;;2.60;;
9892;SDS011;4985;49.092;8.542;2022-11-11T13:25:19;3.37;;;2.70;;
9892;SDS011;4985;49.092;8.542;2022-11-11T13:27:49;6.33;;;2.90;;
9892;SDS011;4985;49.092;8.542;2022-11-11T13:30:30;6.63;;;2.77;;
9892;SDS011;4985;49.092;8.542;2022-11-11T13:33:06;3.57;;;2.40;;
9892;SDS011;4985;49.092;8.542;2022-11-11T13:35:37;5.90;;;3.00;;
9892;SDS011;4985;49.092;8.542;2022-11-11T13:38:12;8.17;;;3.63;;
9892;SDS011;4985;49.092;8.542;2022-11-11T13:40:50;7.20;;;3.43;;
9892;SDS011;4985;49.092;8.542;2022-11-11T13:43:19;4.77;;;3.30;;
9892;SDS011;4985;49.092;8.542;2022-11-11T13:45:50;5.33;;;3.10;;
9892;SDS011;4985;49.092;8.542;2022-11-11T13:48:19;4.57;;;3.13;;
9892;SDS011;4985;49.092;8.542;2022-11-11T13:50:50;4.90;;;3.30;;
9892;SDS011;4985;49.092;8.542;2022-11-11T13:53:25;7.67;;;3.07;;
9892;SDS011;4985;49.092;8.542;2022-11-11T13:55:59;6.90;;;3.83;;
9892;SDS011;4985;49.092;8.542;2022-11-11T13:58:28;6.13;;;3.17;;
9892;SDS011;4985;49.092;8.542;2022-11-11T14:00:58;4.47;;;2.77;;
9892;SDS011;4985;49.092;8.542;2022-11-11T14:03:28;3.87;;;2.93;;
9892;SDS011;4985;49.092;8.542;2022-11-11T14:09:02;5.10;;;2.90;;
9892;SDS011;4985;49.092;8.542;2022-11-11T14:11:30;6.07;;;2.93;;
9892;SDS011;4985;49.092;8.542;2022-11-11T14:16:59;5.03;;;4.10;;
9892;SDS011;4985;49.092;8.542;2022-11-11T14:19:28;4.53;;;2.90;;
9892;SDS011;4985;49.092;8.542;2022-11-11T14:21:56;4.27;;;2.60;;
9892;SDS011;4985;49.092;8.542;2022-11-11T14:24:28;3.33;;;2.63;;
9892;SDS011;4985;49.092;8.542;2022-11-11T14:27:00;6.20;;;3.27;;
9892;SDS011;4985;49.092;8.542;2022-11-11T14:29:30;6.53;;;2.73;;
9892;SDS011;4985;49.092;8.542;2022-11-11T14:32:22;4.20;;;2.97;;
9892;SDS011;4985;49.092;8.542;2022-11-11T14:35:20;8.30;;;3.40;;
9892;SDS011;4985;49.092;8.542;2022-11-11T14:40:55;5.33;;;2.60;;
9892;SDS011;4985;49.092;8.542;2022-11-11T14:43:37;4.70;;;3.00;;
9892;SDS011;4985;49.092;8.542;2022-11-11T14:46:08;3.13;;;2.77;;
9892;SDS011;4985;49.092;8.542;2022-11-11T14:48:55;7.10;;;3.00;;
9892;SDS011;4985;49.092;8.542;2022-11-11T14:51:43;5.63;;;4.13;;
9892;SDS011;4985;49.092;8.542;2022-11-11T14:54:17;5.60;;;4.43;;
9892;SDS011;4985;49.092;8.542;2022-11-11T14:56:56;7.70;;;4.87;;
9892;SDS011;4985;49.092;8.542;2022-11-11T14:59:26;9.83;;;6.10;;
9892;SDS011;4985;49.092;8.542;2022-11-11T15:01:55;5.90;;;4.90;;
9892;SDS011;4985;49.092;8.542;2022-11-11T15:04:24;11.03;;;5.87;;
9892;SDS011;4985;49.092;8.542;2022-11-11T15:06:54;6.77;;;4.47;;
9892;SDS011;4985;49.092;8.542;2022-11-11T15:09:34;6.07;;;4.93;;
9892;SDS011;4985;49.092;8.542;2022-11-11T15:12:12;7.87;;;5.43;;
9892;SDS011;4985;49.092;8.542;2022-11-11T15:14:52;8.83;;;6.37;;
9892;SDS011;4985;49.092;8.542;2022-11-11T15:17:27;7.43;;;6.30;;
9892;SDS011;4985;49.092;8.542;2022-11-11T15:20:07;10.90;;;6.80;;
9892;SDS011;4985;49.092;8.542;2022-11-11T15:22:52;7.70;;;5.60;;
9892;SDS011;4985;49.092;8.542;2022-11-11T15:25:29;7.53;;;6.07;;
9892;SDS011;4985;49.092;8.542;2022-11-11T15:28:10;7.93;;;5.93;;
9892;SDS011;4985;49.092;8.542;2022-11-11T15:30:52;8.33;;;6.47;;
9892;SDS011;4985;49.092;8.542;2022-11-11T15:33:33;9.43;;;7.20;;
9892;SDS011;4985;49.092;8.542;2022-11-11T15:36:09;9.40;;;7.47;;
9892;SDS011;4985;49.092;8.542;2022-11-11T15:38:43;9.20;;;7.20;;
9892;SDS011;4985;49.092;8.542;2022-11-11T15:41:19;8.53;;;7.20;;
9892;SDS011;4985;49.092;8.542;2022-11-11T15:43:50;6.47;;;5.43;;
9892;SDS011;4985;49.092;8.542;2022-11-11T15:46:20;7.77;;;6.17;;
9892;SDS011;4985;49.092;8.542;2022-11-11T15:48:51;7.50;;;6.40;;
9892;SDS011;4985;49.092;8.542;2022-11-11T15:51:25;5.33;;;4.60;;
9892;SDS011;4985;49.092;8.542;2022-11-11T15:53:54;4.70;;;4.20;;
9892;SDS011;4985;49.092;8.542;2022-11-11T15:56:34;4.83;;;4.17;;